sensor_id;sensor_type;location;lat;lon;timestamp;P1;durP1;ratioP1;P2;durP2;ratioP2
22894;SDS011;11614;52.494;6.976;2023-09-19T00:00:45;2.70;;;0.83;;
22894;SDS011;11614;52.494;6.976;2023-09-19T00:03:14;3.43;;;1.40;;
22894;SDS011;11614;52.494;6.976;2023-09-19T00:05:40;3.67;;;1.67;;
22894;SDS011;11614;52.494;6.976;2023-09-19T00:08:09;4.43;;;1.23;;
22894;SDS011;11614;52.494;6.976;2023-09-19T00:10:35;5.33;;;1.30;;
22894;SDS011;11614;52.494;6.976;2023-09-19T00:13:04;4.70;;;1.30;;
22894;SDS011;11614;52.494;6.976;2023-09-19T00:15:37;3.23;;;1.13;;
22894;SDS011;11614;52.494;6.976;2023-09-19T00:18:04;4.80;;;1.37;;
22894;SDS011;11614;52.494;6.976;2023-09-19T00:20:40;8.07;;;1.03;;
22894;SDS011;11614;52.494;6.976;2023-09-19T00:23:07;1.63;;;0.53;;
22894;SDS011;11614;52.494;6.976;2023-09-19T00:25:36;5.37;;;1.17;;
22894;SDS011;11614;52.494;6.976;2023-09-19T00:28:03;4.07;;;1.27;;
22894;SDS011;11614;52.494;6.976;2023-09-19T00:30:32;2.93;;;0.70;;
22894;SDS011;11614;52.494;6.976;2023-09-19T00:32:59;2.20;;;0.63;;
22894;SDS011;11614;52.494;6.976;2023-09-19T00:35:26;6.07;;;1.43;;
22894;SDS011;11614;52.494;6.976;2023-09-19T00:37:55;2.13;;;0.77;;
22894;SDS011;11614;52.494;6.976;2023-09-19T00:40:21;3.90;;;1.47;;
22894;SDS011;11614;52.494;6.976;2023-09-19T00:42:48;5.83;;;1.70;;
22894;SDS011;11614;52.494;6.976;2023-09-19T00:45:16;5.10;;;1.07;;
22894;SDS011;11614;52.494;6.976;2023-09-19T00:47:49;4.87;;;1.27;;
22894;SDS011;11614;52.494;6.976;2023-09-19T00:50:16;3.93;;;1.63;;
22894;SDS011;11614;52.494;6.976;2023-09-19T00:52:42;7.97;;;2.20;;
22894;SDS011;11614;52.494;6.976;2023-09-19T00:55:11;3.17;;;1.20;;
22894;SDS011;11614;52.494;6.976;2023-09-19T00:57:41;4.73;;;1.93;;
22894;SDS011;11614;52.494;6.976;2023-09-19T01:00:09;5.13;;;1.27;;
22894;SDS011;11614;52.494;6.976;2023-09-19T01:02:39;3.90;;;1.23;;
22894;SDS011;11614;52.494;6.976;2023-09-19T01:05:09;2.13;;;0.70;;
22894;SDS011;11614;52.494;6.976;2023-09-19T01:07:36;5.33;;;0.87;;
22894;SDS011;11614;52.494;6.976;2023-09-19T01:10:10;4.17;;;1.20;;
22894;SDS011;11614;52.494;6.976;2023-09-19T01:18:16;2.30;;;1.10;;
22894;SDS011;11614;52.494;6.976;2023-09-19T01:21:15;3.80;;;1.50;;
22894;SDS011;11614;52.494;6.976;2023-09-19T01:24:07;6.53;;;1.60;;
22894;SDS011;11614;52.494;6.976;2023-09-19T01:29:39;3.00;;;1.90;;
22894;SDS011;11614;52.494;6.976;2023-09-19T01:32:11;8.03;;;1.97;;
22894;SDS011;11614;52.494;6.976;2023-09-19T01:34:47;2.47;;;0.93;;
22894;SDS011;11614;52.494;6.976;2023-09-19T01:37:15;7.20;;;1.67;;
22894;SDS011;11614;52.494;6.976;2023-09-19T01:39:55;4.80;;;1.43;;
22894;SDS011;11614;52.494;6.976;2023-09-19T01:42:31;5.30;;;1.50;;
22894;SDS011;11614;52.494;6.976;2023-09-19T01:45:07;4.13;;;1.57;;
22894;SDS011;11614;52.494;6.976;2023-09-19T01:47:50;3.97;;;1.53;;
22894;SDS011;11614;52.494;6.976;2023-09-19T01:55:53;6.53;;;1.70;;
22894;SDS011;11614;52.494;6.976;2023-09-19T01:58:21;4.47;;;1.00;;
22894;SDS011;11614;52.494;6.976;2023-09-19T02:01:04;2.40;;;1.23;;
22894;SDS011;11614;52.494;6.976;2023-09-19T02:03:31;2.70;;;0.80;;
22894;SDS011;11614;52.494;6.976;2023-09-19T02:05:58;3.30;;;1.27;;
22894;SDS011;11614;52.494;6.976;2023-09-19T02:08:24;6.87;;;1.47;;
22894;SDS011;11614;52.494;6.976;2023-09-19T02:10:51;6.47;;;1.37;;
22894;SDS011;11614;52.494;6.976;2023-09-19T02:13:20;2.57;;;1.40;;
22894;SDS011;11614;52.494;6.976;2023-09-19T02:15:49;3.17;;;1.07;;
22894;SDS011;11614;52.494;6.976;2023-09-19T02:18:15;8.20;;;1.80;;
22894;SDS011;11614;52.494;6.976;2023-09-19T02:20:42;4.03;;;1.33;;
22894;SDS011;11614;52.494;6.976;2023-09-19T02:23:08;8.63;;;1.67;;
22894;SDS011;11614;52.494;6.976;2023-09-19T02:25:34;5.00;;;1.20;;
22894;SDS011;11614;52.494;6.976;2023-09-19T02:28:01;6.13;;;1.30;;
22894;SDS011;11614;52.494;6.976;2023-09-19T02:30:28;3.87;;;1.10;;
22894;SDS011;11614;52.494;6.976;2023-09-19T02:32:54;6.03;;;1.60;;
22894;SDS011;11614;52.494;6.976;2023-09-19T02:35:20;5.43;;;1.70;;
22894;SDS011;11614;52.494;6.976;2023-09-19T02:37:46;6.50;;;1.47;;
22894;SDS011;11614;52.494;6.976;2023-09-19T02:40:12;8.17;;;2.40;;
22894;SDS011;11614;52.494;6.976;2023-09-19T02:42:48;2.80;;;1.27;;
22894;SDS011;11614;52.494;6.976;2023-09-19T02:45:15;6.27;;;1.70;;
22894;SDS011;11614;52.494;6.976;2023-09-19T02:47:43;4.97;;;1.80;;
22894;SDS011;11614;52.494;6.976;2023-09-19T02:50:09;6.43;;;1.23;;
22894;SDS011;11614;52.494;6.976;2023-09-19T02:52:38;9.73;;;1.73;;
22894;SDS011;11614;52.494;6.976;2023-09-19T02:55:10;5.00;;;1.73;;
22894;SDS011;11614;52.494;6.976;2023-09-19T02:57:37;4.60;;;1.37;;
22894;SDS011;11614;52.494;6.976;2023-09-19T03:00:08;4.73;;;1.43;;
22894;SDS011;11614;52.494;6.976;2023-09-19T03:02:37;5.37;;;1.50;;
22894;SDS011;11614;52.494;6.976;2023-09-19T03:05:06;4.50;;;1.50;;
22894;SDS011;11614;52.494;6.976;2023-09-19T03:07:32;7.20;;;2.40;;
22894;SDS011;11614;52.494;6.976;2023-09-19T03:09:58;7.60;;;1.90;;
22894;SDS011;11614;52.494;6.976;2023-09-19T03:12:25;6.37;;;2.33;;
22894;SDS011;11614;52.494;6.976;2023-09-19T03:14:51;4.87;;;2.43;;
22894;SDS011;11614;52.494;6.976;2023-09-19T03:17:17;2.67;;;1.20;;
22894;SDS011;11614;52.494;6.976;2023-09-19T03:19:45;7.30;;;2.13;;
22894;SDS011;11614;52.494;6.976;2023-09-19T03:22:12;5.13;;;1.80;;
22894;SDS011;11614;52.494;6.976;2023-09-19T03:24:38;5.83;;;1.53;;
22894;SDS011;11614;52.494;6.976;2023-09-19T03:27:04;7.63;;;2.27;;
22894;SDS011;11614;52.494;6.976;2023-09-19T03:29:30;10.97;;;2.43;;
22894;SDS011;11614;52.494;6.976;2023-09-19T03:31:56;10.87;;;2.47;;
22894;SDS011;11614;52.494;6.976;2023-09-19T03:34:22;5.63;;;2.60;;
22894;SDS011;11614;52.494;6.976;2023-09-19T03:36:48;7.83;;;2.70;;
22894;SDS011;11614;52.494;6.976;2023-09-19T03:39:14;8.80;;;2.60;;
22894;SDS011;11614;52.494;6.976;2023-09-19T03:41:41;11.07;;;2.57;;
22894;SDS011;11614;52.494;6.976;2023-09-19T03:44:07;6.80;;;1.87;;
22894;SDS011;11614;52.494;6.976;2023-09-19T03:46:33;7.23;;;2.80;;
22894;SDS011;11614;52.494;6.976;2023-09-19T03:49:00;10.33;;;2.50;;
22894;SDS011;11614;52.494;6.976;2023-09-19T03:51:26;6.80;;;2.27;;
22894;SDS011;11614;52.494;6.976;2023-09-19T03:53:52;6.67;;;2.37;;
22894;SDS011;11614;52.494;6.976;2023-09-19T03:56:18;8.53;;;2.57;;
22894;SDS011;11614;52.494;6.976;2023-09-19T03:58:44;5.63;;;2.00;;
22894;SDS011;11614;52.494;6.976;2023-09-19T04:01:10;5.37;;;2.47;;
22894;SDS011;11614;52.494;6.976;2023-09-19T04:03:38;9.07;;;3.07;;
22894;SDS011;11614;52.494;6.976;2023-09-19T04:06:16;10.60;;;3.07;;
22894;SDS011;11614;52.494;6.976;2023-09-19T04:08:42;8.10;;;2.93;;
22894;SDS011;11614;52.494;6.976;2023-09-19T04:11:09;6.83;;;2.50;;
22894;SDS011;11614;52.494;6.976;2023-09-19T04:13:35;8.80;;;1.80;;
22894;SDS011;11614;52.494;6.976;2023-09-19T04:16:02;5.57;;;2.10;;
22894;SDS011;11614;52.494;6.976;2023-09-19T04:18:32;5.10;;;1.60;;
22894;SDS011;11614;52.494;6.976;2023-09-19T04:21:02;5.33;;;2.33;;
22894;SDS011;11614;52.494;6.976;2023-09-19T04:23:29;8.57;;;1.80;;
22894;SDS011;11614;52.494;6.976;2023-09-19T04:25:56;10.57;;;2.60;;
22894;SDS011;11614;52.494;6.976;2023-09-19T04:28:22;7.40;;;1.83;;
22894;SDS011;11614;52.494;6.976;2023-09-19T04:30:49;8.30;;;2.80;;
22894;SDS011;11614;52.494;6.976;2023-09-19T04:33:15;7.37;;;1.90;;
22894;SDS011;11614;52.494;6.976;2023-09-19T04:35:41;9.90;;;2.63;;
22894;SDS011;11614;52.494;6.976;2023-09-19T04:38:10;8.20;;;2.30;;
22894;SDS011;11614;52.494;6.976;2023-09-19T04:40:37;8.07;;;2.17;;
22894;SDS011;11614;52.494;6.976;2023-09-19T04:43:04;12.43;;;2.77;;
22894;SDS011;11614;52.494;6.976;2023-09-19T04:45:31;7.47;;;2.00;;
22894;SDS011;11614;52.494;6.976;2023-09-19T04:47:57;6.17;;;2.00;;
22894;SDS011;11614;52.494;6.976;2023-09-19T04:50:22;10.07;;;2.03;;
22894;SDS011;11614;52.494;6.976;2023-09-19T04:52:51;6.20;;;1.63;;
22894;SDS011;11614;52.494;6.976;2023-09-19T04:55:18;7.07;;;2.13;;
22894;SDS011;11614;52.494;6.976;2023-09-19T04:57:47;12.23;;;2.20;;
22894;SDS011;11614;52.494;6.976;2023-09-19T05:00:18;8.30;;;2.10;;
22894;SDS011;11614;52.494;6.976;2023-09-19T05:02:52;5.67;;;1.60;;
22894;SDS011;11614;52.494;6.976;2023-09-19T05:05:20;8.27;;;2.67;;
22894;SDS011;11614;52.494;6.976;2023-09-19T05:07:47;7.93;;;2.13;;
22894;SDS011;11614;52.494;6.976;2023-09-19T05:10:13;4.20;;;1.53;;
22894;SDS011;11614;52.494;6.976;2023-09-19T05:12:43;5.30;;;1.73;;
22894;SDS011;11614;52.494;6.976;2023-09-19T05:15:11;6.23;;;1.67;;
22894;SDS011;11614;52.494;6.976;2023-09-19T05:17:37;8.50;;;2.20;;
22894;SDS011;11614;52.494;6.976;2023-09-19T05:20:04;6.53;;;1.60;;
22894;SDS011;11614;52.494;6.976;2023-09-19T05:22:40;4.00;;;1.67;;
22894;SDS011;11614;52.494;6.976;2023-09-19T05:25:08;13.03;;;2.27;;
22894;SDS011;11614;52.494;6.976;2023-09-19T05:27:34;6.70;;;1.90;;
22894;SDS011;11614;52.494;6.976;2023-09-19T05:30:00;5.67;;;1.37;;
22894;SDS011;11614;52.494;6.976;2023-09-19T05:32:26;4.97;;;1.73;;
22894;SDS011;11614;52.494;6.976;2023-09-19T05:34:52;6.03;;;1.57;;
22894;SDS011;11614;52.494;6.976;2023-09-19T05:37:18;6.50;;;2.13;;
22894;SDS011;11614;52.494;6.976;2023-09-19T05:39:44;7.17;;;2.10;;
22894;SDS011;11614;52.494;6.976;2023-09-19T05:42:11;6.93;;;1.83;;
22894;SDS011;11614;52.494;6.976;2023-09-19T05:44:37;9.23;;;1.97;;
22894;SDS011;11614;52.494;6.976;2023-09-19T05:47:03;4.27;;;1.67;;
22894;SDS011;11614;52.494;6.976;2023-09-19T05:49:29;11.23;;;2.20;;
22894;SDS011;11614;52.494;6.976;2023-09-19T05:51:55;5.13;;;1.60;;
22894;SDS011;11614;52.494;6.976;2023-09-19T05:54:21;6.97;;;2.43;;
22894;SDS011;11614;52.494;6.976;2023-09-19T05:56:47;6.23;;;2.17;;
22894;SDS011;11614;52.494;6.976;2023-09-19T05:59:13;7.30;;;2.63;;
22894;SDS011;11614;52.494;6.976;2023-09-19T06:01:43;8.27;;;2.83;;
22894;SDS011;11614;52.494;6.976;2023-09-19T06:04:09;6.07;;;1.77;;
22894;SDS011;11614;52.494;6.976;2023-09-19T06:06:34;6.80;;;1.73;;
22894;SDS011;11614;52.494;6.976;2023-09-19T06:09:04;6.13;;;1.17;;
22894;SDS011;11614;52.494;6.976;2023-09-19T06:11:34;6.23;;;1.83;;
22894;SDS011;11614;52.494;6.976;2023-09-19T06:14:01;4.87;;;2.17;;
22894;SDS011;11614;52.494;6.976;2023-09-19T06:16:27;11.53;;;2.67;;
22894;SDS011;11614;52.494;6.976;2023-09-19T06:18:54;4.25;;;1.55;;
22894;SDS011;11614;52.494;6.976;2023-09-19T06:21:21;5.70;;;1.50;;
22894;SDS011;11614;52.494;6.976;2023-09-19T06:23:47;6.80;;;2.13;;
22894;SDS011;11614;52.494;6.976;2023-09-19T06:26:13;5.40;;;1.38;;
22894;SDS011;11614;52.494;6.976;2023-09-19T06:28:39;6.60;;;2.08;;
22894;SDS011;11614;52.494;6.976;2023-09-19T06:31:06;8.65;;;2.20;;
22894;SDS011;11614;52.494;6.976;2023-09-19T06:33:35;6.83;;;2.10;;
22894;SDS011;11614;52.494;6.976;2023-09-19T06:36:04;7.77;;;1.00;;
22894;SDS011;11614;52.494;6.976;2023-09-19T06:38:30;7.40;;;2.13;;
22894;SDS011;11614;52.494;6.976;2023-09-19T06:40:58;3.83;;;1.37;;
22894;SDS011;11614;52.494;6.976;2023-09-19T06:43:24;7.87;;;1.90;;
22894;SDS011;11614;52.494;6.976;2023-09-19T06:45:50;7.77;;;1.93;;
22894;SDS011;11614;52.494;6.976;2023-09-19T06:48:19;4.93;;;1.20;;
22894;SDS011;11614;52.494;6.976;2023-09-19T06:50:46;4.37;;;2.07;;
22894;SDS011;11614;52.494;6.976;2023-09-19T06:53:13;3.53;;;1.57;;
22894;SDS011;11614;52.494;6.976;2023-09-19T06:55:39;5.60;;;1.20;;
22894;SDS011;11614;52.494;6.976;2023-09-19T06:58:06;5.03;;;1.97;;
22894;SDS011;11614;52.494;6.976;2023-09-19T07:00:32;2.07;;;1.40;;
22894;SDS011;11614;52.494;6.976;2023-09-19T07:03:03;6.10;;;1.37;;
22894;SDS011;11614;52.494;6.976;2023-09-19T07:05:32;5.88;;;1.60;;
22894;SDS011;11614;52.494;6.976;2023-09-19T07:08:01;10.10;;;3.03;;
22894;SDS011;11614;52.494;6.976;2023-09-19T07:10:27;4.53;;;2.00;;
22894;SDS011;11614;52.494;6.976;2023-09-19T07:13:05;4.40;;;2.13;;
22894;SDS011;11614;52.494;6.976;2023-09-19T07:15:34;5.35;;;1.60;;
22894;SDS011;11614;52.494;6.976;2023-09-19T07:18:03;6.60;;;2.08;;
22894;SDS011;11614;52.494;6.976;2023-09-19T07:20:29;4.95;;;2.13;;
22894;SDS011;11614;52.494;6.976;2023-09-19T07:22:57;4.55;;;2.00;;
22894;SDS011;11614;52.494;6.976;2023-09-19T07:25:24;7.43;;;1.80;;
22894;SDS011;11614;52.494;6.976;2023-09-19T07:27:50;5.57;;;2.10;;
22894;SDS011;11614;52.494;6.976;2023-09-19T07:30:16;8.50;;;2.75;;
22894;SDS011;11614;52.494;6.976;2023-09-19T07:32:43;8.35;;;2.20;;
22894;SDS011;11614;52.494;6.976;2023-09-19T07:35:09;5.57;;;2.55;;
22894;SDS011;11614;52.494;6.976;2023-09-19T07:37:35;7.18;;;2.92;;
22894;SDS011;11614;52.494;6.976;2023-09-19T07:40:01;6.03;;;2.35;;
22894;SDS011;11614;52.494;6.976;2023-09-19T07:42:34;3.95;;;1.80;;
22894;SDS011;11614;52.494;6.976;2023-09-19T07:45:01;4.65;;;1.58;;
22894;SDS011;11614;52.494;6.976;2023-09-19T07:47:28;9.40;;;2.88;;
22894;SDS011;11614;52.494;6.976;2023-09-19T07:49:55;3.88;;;1.80;;
22894;SDS011;11614;52.494;6.976;2023-09-19T07:52:21;5.10;;;2.05;;
22894;SDS011;11614;52.494;6.976;2023-09-19T07:54:48;3.20;;;1.27;;
22894;SDS011;11614;52.494;6.976;2023-09-19T07:57:14;5.75;;;1.88;;
22894;SDS011;11614;52.494;6.976;2023-09-19T07:59:41;6.30;;;2.00;;
22894;SDS011;11614;52.494;6.976;2023-09-19T08:02:08;6.43;;;1.90;;
22894;SDS011;11614;52.494;6.976;2023-09-19T08:04:41;5.43;;;2.30;;
22894;SDS011;11614;52.494;6.976;2023-09-19T08:07:07;6.57;;;1.92;;
22894;SDS011;11614;52.494;6.976;2023-09-19T08:09:34;5.47;;;1.42;;
22894;SDS011;11614;52.494;6.976;2023-09-19T08:12:00;9.93;;;2.30;;
22894;SDS011;11614;52.494;6.976;2023-09-19T08:14:27;6.10;;;1.80;;
22894;SDS011;11614;52.494;6.976;2023-09-19T08:16:57;3.72;;;1.40;;
22894;SDS011;11614;52.494;6.976;2023-09-19T08:19:24;3.35;;;1.80;;
22894;SDS011;11614;52.494;6.976;2023-09-19T08:21:54;6.82;;;2.50;;
22894;SDS011;11614;52.494;6.976;2023-09-19T08:24:20;9.48;;;2.95;;
22894;SDS011;11614;52.494;6.976;2023-09-19T08:26:46;11.15;;;1.92;;
22894;SDS011;11614;52.494;6.976;2023-09-19T08:29:12;8.43;;;2.25;;
22894;SDS011;11614;52.494;6.976;2023-09-19T08:31:38;8.48;;;1.90;;
22894;SDS011;11614;52.494;6.976;2023-09-19T08:34:04;7.13;;;2.22;;
22894;SDS011;11614;52.494;6.976;2023-09-19T08:36:30;7.65;;;1.98;;
22894;SDS011;11614;52.494;6.976;2023-09-19T08:38:56;5.53;;;1.30;;
22894;SDS011;11614;52.494;6.976;2023-09-19T08:41:22;8.95;;;2.63;;
22894;SDS011;11614;52.494;6.976;2023-09-19T08:43:48;6.30;;;2.10;;
22894;SDS011;11614;52.494;6.976;2023-09-19T08:46:16;5.35;;;2.08;;
22894;SDS011;11614;52.494;6.976;2023-09-19T08:51:41;6.38;;;1.38;;
22894;SDS011;11614;52.494;6.976;2023-09-19T08:54:10;5.07;;;1.52;;
22894;SDS011;11614;52.494;6.976;2023-09-19T08:56:38;7.22;;;2.53;;
22894;SDS011;11614;52.494;6.976;2023-09-19T08:59:05;7.45;;;2.30;;
22894;SDS011;11614;52.494;6.976;2023-09-19T09:01:34;11.32;;;2.25;;
22894;SDS011;11614;52.494;6.976;2023-09-19T09:04:02;8.27;;;2.42;;
22894;SDS011;11614;52.494;6.976;2023-09-19T09:06:28;5.75;;;2.25;;
22894;SDS011;11614;52.494;6.976;2023-09-19T09:08:55;5.50;;;2.03;;
22894;SDS011;11614;52.494;6.976;2023-09-19T09:11:24;5.78;;;2.63;;
22894;SDS011;11614;52.494;6.976;2023-09-19T09:13:50;8.75;;;2.05;;
22894;SDS011;11614;52.494;6.976;2023-09-19T09:16:16;5.68;;;2.08;;
22894;SDS011;11614;52.494;6.976;2023-09-19T09:18:44;4.50;;;2.05;;
22894;SDS011;11614;52.494;6.976;2023-09-19T09:21:10;3.63;;;1.50;;
22894;SDS011;11614;52.494;6.976;2023-09-19T09:23:36;6.40;;;2.63;;
22894;SDS011;11614;52.494;6.976;2023-09-19T09:26:03;5.75;;;2.42;;
22894;SDS011;11614;52.494;6.976;2023-09-19T09:28:32;6.07;;;3.92;;
22894;SDS011;11614;52.494;6.976;2023-09-19T09:31:00;9.05;;;6.15;;
22894;SDS011;11614;52.494;6.976;2023-09-19T09:33:33;15.45;;;7.00;;
22894;SDS011;11614;52.494;6.976;2023-09-19T09:36:00;17.77;;;8.63;;
22894;SDS011;11614;52.494;6.976;2023-09-19T09:38:28;12.10;;;6.82;;
22894;SDS011;11614;52.494;6.976;2023-09-19T09:40:58;19.90;;;9.23;;
22894;SDS011;11614;52.494;6.976;2023-09-19T09:43:38;13.90;;;7.22;;
22894;SDS011;11614;52.494;6.976;2023-09-19T09:46:15;13.73;;;6.85;;
22894;SDS011;11614;52.494;6.976;2023-09-19T09:49:04;51.25;;;13.98;;
22894;SDS011;11614;52.494;6.976;2023-09-19T09:51:41;25.50;;;7.97;;
22894;SDS011;11614;52.494;6.976;2023-09-19T09:54:17;27.90;;;9.77;;
22894;SDS011;11614;52.494;6.976;2023-09-19T09:56:59;13.75;;;5.50;;
22894;SDS011;11614;52.494;6.976;2023-09-19T10:02:37;30.67;;;9.15;;
22894;SDS011;11614;52.494;6.976;2023-09-19T10:05:12;25.08;;;11.25;;
22894;SDS011;11614;52.494;6.976;2023-09-19T10:07:53;10.40;;;4.68;;
22894;SDS011;11614;52.494;6.976;2023-09-19T10:10:31;27.60;;;7.63;;
22894;SDS011;11614;52.494;6.976;2023-09-19T10:13:07;30.30;;;10.32;;
22894;SDS011;11614;52.494;6.976;2023-09-19T10:15:37;24.38;;;8.77;;
22894;SDS011;11614;52.494;6.976;2023-09-19T10:18:06;19.70;;;8.35;;
22894;SDS011;11614;52.494;6.976;2023-09-19T10:20:43;11.00;;;3.95;;
22894;SDS011;11614;52.494;6.976;2023-09-19T10:23:11;38.50;;;11.13;;
22894;SDS011;11614;52.494;6.976;2023-09-19T10:25:45;11.23;;;4.78;;
22894;SDS011;11614;52.494;6.976;2023-09-19T10:28:13;18.30;;;5.10;;
22894;SDS011;11614;52.494;6.976;2023-09-19T10:30:45;20.77;;;8.75;;
22894;SDS011;11614;52.494;6.976;2023-09-19T10:33:15;8.48;;;4.10;;
22894;SDS011;11614;52.494;6.976;2023-09-19T10:35:42;7.95;;;3.90;;
22894;SDS011;11614;52.494;6.976;2023-09-19T10:38:09;22.58;;;8.90;;
22894;SDS011;11614;52.494;6.976;2023-09-19T10:40:36;29.73;;;10.55;;
22894;SDS011;11614;52.494;6.976;2023-09-19T10:43:05;58.15;;;13.68;;
22894;SDS011;11614;52.494;6.976;2023-09-19T10:45:33;74.68;;;17.20;;
22894;SDS011;11614;52.494;6.976;2023-09-19T10:47:59;30.50;;;8.45;;
22894;SDS011;11614;52.494;6.976;2023-09-19T10:50:27;12.27;;;4.68;;
22894;SDS011;11614;52.494;6.976;2023-09-19T10:52:56;16.63;;;4.88;;
22894;SDS011;11614;52.494;6.976;2023-09-19T10:55:29;71.00;;;14.75;;
22894;SDS011;11614;52.494;6.976;2023-09-19T10:57:56;26.13;;;7.40;;
22894;SDS011;11614;52.494;6.976;2023-09-19T11:03:18;109.63;;;24.10;;
22894;SDS011;11614;52.494;6.976;2023-09-19T11:11:40;22.77;;;6.28;;
22894;SDS011;11614;52.494;6.976;2023-09-19T11:22:21;26.38;;;9.13;;
22894;SDS011;11614;52.494;6.976;2023-09-19T11:24:47;65.97;;;14.07;;
22894;SDS011;11614;52.494;6.976;2023-09-19T11:27:16;44.65;;;9.68;;
22894;SDS011;11614;52.494;6.976;2023-09-19T11:29:43;88.32;;;17.25;;
22894;SDS011;11614;52.494;6.976;2023-09-19T11:32:09;52.72;;;11.30;;
22894;SDS011;11614;52.494;6.976;2023-09-19T11:39:37;22.50;;;5.15;;
22894;SDS011;11614;52.494;6.976;2023-09-19T11:44:48;97.57;;;18.30;;
22894;SDS011;11614;52.494;6.976;2023-09-19T11:47:16;103.70;;;19.50;;
22894;SDS011;11614;52.494;6.976;2023-09-19T11:49:44;36.95;;;7.13;;
22894;SDS011;11614;52.494;6.976;2023-09-19T11:52:10;38.40;;;8.15;;
22894;SDS011;11614;52.494;6.976;2023-09-19T11:54:39;29.00;;;6.18;;
22894;SDS011;11614;52.494;6.976;2023-09-19T11:57:06;24.40;;;5.32;;
22894;SDS011;11614;52.494;6.976;2023-09-19T11:59:33;75.82;;;13.73;;
22894;SDS011;11614;52.494;6.976;2023-09-19T12:02:03;104.22;;;21.70;;
22894;SDS011;11614;52.494;6.976;2023-09-19T12:04:40;89.47;;;16.45;;
22894;SDS011;11614;52.494;6.976;2023-09-19T12:07:11;23.92;;;5.00;;
22894;SDS011;11614;52.494;6.976;2023-09-19T12:09:41;29.00;;;6.35;;
22894;SDS011;11614;52.494;6.976;2023-09-19T12:12:09;84.95;;;16.08;;
22894;SDS011;11614;52.494;6.976;2023-09-19T12:14:37;117.43;;;25.90;;
22894;SDS011;11614;52.494;6.976;2023-09-19T12:17:04;140.40;;;32.13;;
22894;SDS011;11614;52.494;6.976;2023-09-19T12:19:30;112.82;;;22.35;;
22894;SDS011;11614;52.494;6.976;2023-09-19T12:22:00;5.78;;;3.80;;
22894;SDS011;11614;52.494;6.976;2023-09-19T12:24:29;4.72;;;1.23;;
22894;SDS011;11614;52.494;6.976;2023-09-19T12:27:05;5.03;;;1.80;;
22894;SDS011;11614;52.494;6.976;2023-09-19T12:29:32;4.68;;;1.52;;
22894;SDS011;11614;52.494;6.976;2023-09-19T12:31:59;5.82;;;3.05;;
22894;SDS011;11614;52.494;6.976;2023-09-19T12:34:29;4.88;;;1.60;;
22894;SDS011;11614;52.494;6.976;2023-09-19T12:37:09;4.85;;;1.75;;
22894;SDS011;11614;52.494;6.976;2023-09-19T12:39:41;2.47;;;1.20;;
22894;SDS011;11614;52.494;6.976;2023-09-19T12:42:10;5.70;;;1.40;;
22894;SDS011;11614;52.494;6.976;2023-09-19T12:44:40;4.35;;;1.63;;
22894;SDS011;11614;52.494;6.976;2023-09-19T12:47:11;2.88;;;1.38;;
22894;SDS011;11614;52.494;6.976;2023-09-19T12:50:04;2.38;;;1.17;;
22894;SDS011;11614;52.494;6.976;2023-09-19T12:52:23;4.53;;;2.20;;
22894;SDS011;11614;52.494;6.976;2023-09-19T12:54:51;4.95;;;3.63;;
22894;SDS011;11614;52.494;6.976;2023-09-19T12:57:23;24.05;;;10.70;;
22894;SDS011;11614;52.494;6.976;2023-09-19T12:59:52;21.25;;;6.38;;
22894;SDS011;11614;52.494;6.976;2023-09-19T13:02:18;51.60;;;12.25;;
22894;SDS011;11614;52.494;6.976;2023-09-19T13:04:54;62.60;;;13.90;;
22894;SDS011;11614;52.494;6.976;2023-09-19T13:07:43;20.75;;;5.07;;
22894;SDS011;11614;52.494;6.976;2023-09-19T13:10:11;73.63;;;13.50;;
22894;SDS011;11614;52.494;6.976;2023-09-19T13:12:40;97.20;;;18.63;;
22894;SDS011;11614;52.494;6.976;2023-09-19T13:15:11;74.47;;;14.45;;
22894;SDS011;11614;52.494;6.976;2023-09-19T13:17:48;107.43;;;20.33;;
22894;SDS011;11614;52.494;6.976;2023-09-19T13:20:24;118.72;;;24.33;;
22894;SDS011;11614;52.494;6.976;2023-09-19T13:22:52;28.63;;;6.40;;
22894;SDS011;11614;52.494;6.976;2023-09-19T13:25:19;118.32;;;26.73;;
22894;SDS011;11614;52.494;6.976;2023-09-19T13:27:46;119.35;;;22.15;;
22894;SDS011;11614;52.494;6.976;2023-09-19T13:30:17;125.28;;;27.60;;
22894;SDS011;11614;52.494;6.976;2023-09-19T13:32:43;5.07;;;3.67;;
22894;SDS011;11614;52.494;6.976;2023-09-19T13:35:12;8.05;;;1.85;;
22894;SDS011;11614;52.494;6.976;2023-09-19T13:37:38;6.43;;;1.50;;
22894;SDS011;11614;52.494;6.976;2023-09-19T13:40:11;2.25;;;0.88;;
22894;SDS011;11614;52.494;6.976;2023-09-19T13:42:37;4.30;;;1.17;;
22894;SDS011;11614;52.494;6.976;2023-09-19T13:45:04;5.97;;;1.80;;
22894;SDS011;11614;52.494;6.976;2023-09-19T13:47:31;4.18;;;1.33;;
22894;SDS011;11614;52.494;6.976;2023-09-19T13:49:57;5.50;;;1.83;;
22894;SDS011;11614;52.494;6.976;2023-09-19T13:52:23;2.83;;;1.55;;
22894;SDS011;11614;52.494;6.976;2023-09-19T13:54:53;4.68;;;2.10;;
22894;SDS011;11614;52.494;6.976;2023-09-19T13:57:21;5.88;;;3.92;;
22894;SDS011;11614;52.494;6.976;2023-09-19T13:59:47;18.88;;;8.57;;
22894;SDS011;11614;52.494;6.976;2023-09-19T14:02:13;7.75;;;2.65;;
22894;SDS011;11614;52.494;6.976;2023-09-19T14:04:39;16.27;;;4.20;;
22894;SDS011;11614;52.494;6.976;2023-09-19T14:07:06;17.10;;;3.55;;
22894;SDS011;11614;52.494;6.976;2023-09-19T14:09:32;15.88;;;3.78;;
22894;SDS011;11614;52.494;6.976;2023-09-19T14:11:59;70.53;;;13.38;;
22894;SDS011;11614;52.494;6.976;2023-09-19T14:14:25;91.88;;;17.27;;
22894;SDS011;11614;52.494;6.976;2023-09-19T14:16:51;113.15;;;21.67;;
22894;SDS011;11614;52.494;6.976;2023-09-19T14:19:20;89.78;;;16.33;;
22894;SDS011;11614;52.494;6.976;2023-09-19T14:21:46;26.73;;;5.55;;
22894;SDS011;11614;52.494;6.976;2023-09-19T14:24:18;29.50;;;6.18;;
22894;SDS011;11614;52.494;6.976;2023-09-19T14:26:44;27.58;;;6.00;;
22894;SDS011;11614;52.494;6.976;2023-09-19T14:29:11;25.73;;;5.43;;
22894;SDS011;11614;52.494;6.976;2023-09-19T14:31:38;2.95;;;1.45;;
22894;SDS011;11614;52.494;6.976;2023-09-19T14:34:05;5.95;;;1.60;;
22894;SDS011;11614;52.494;6.976;2023-09-19T14:36:31;3.25;;;1.27;;
22894;SDS011;11614;52.494;6.976;2023-09-19T14:38:58;2.63;;;1.27;;
22894;SDS011;11614;52.494;6.976;2023-09-19T14:41:24;2.78;;;1.27;;
22894;SDS011;11614;52.494;6.976;2023-09-19T14:43:51;3.53;;;1.00;;
22894;SDS011;11614;52.494;6.976;2023-09-19T14:46:17;4.95;;;1.13;;
22894;SDS011;11614;52.494;6.976;2023-09-19T14:48:44;4.32;;;1.85;;
22894;SDS011;11614;52.494;6.976;2023-09-19T14:51:13;2.95;;;1.30;;
22894;SDS011;11614;52.494;6.976;2023-09-19T14:53:39;2.03;;;0.70;;
22894;SDS011;11614;52.494;6.976;2023-09-19T14:56:09;3.47;;;1.25;;
22894;SDS011;11614;52.494;6.976;2023-09-19T14:58:36;4.80;;;1.55;;
22894;SDS011;11614;52.494;6.976;2023-09-19T15:01:07;1.92;;;0.80;;
22894;SDS011;11614;52.494;6.976;2023-09-19T15:03:35;5.88;;;3.25;;
22894;SDS011;11614;52.494;6.976;2023-09-19T15:06:01;6.05;;;3.60;;
22894;SDS011;11614;52.494;6.976;2023-09-19T15:08:29;11.30;;;3.80;;
22894;SDS011;11614;52.494;6.976;2023-09-19T15:10:55;14.25;;;3.95;;
22894;SDS011;11614;52.494;6.976;2023-09-19T15:13:23;13.57;;;3.55;;
22894;SDS011;11614;52.494;6.976;2023-09-19T15:15:57;11.32;;;2.97;;
22894;SDS011;11614;52.494;6.976;2023-09-19T15:18:23;12.55;;;2.80;;
22894;SDS011;11614;52.494;6.976;2023-09-19T15:20:49;26.80;;;5.43;;
22894;SDS011;11614;52.494;6.976;2023-09-19T15:23:16;53.45;;;9.63;;
22894;SDS011;11614;52.494;6.976;2023-09-19T15:25:49;78.18;;;14.63;;
22894;SDS011;11614;52.494;6.976;2023-09-19T15:28:16;85.47;;;17.40;;
22894;SDS011;11614;52.494;6.976;2023-09-19T15:30:42;96.50;;;18.65;;
22894;SDS011;11614;52.494;6.976;2023-09-19T15:33:08;100.72;;;19.25;;